createdAt,value
2022-08-18T00:01:58.746Z,19.70
2022-08-18T00:04:35.721Z,19.70
2022-08-18T00:07:05.967Z,19.60
2022-08-18T00:09:35.893Z,19.60
2022-08-18T00:12:06.566Z,19.60
2022-08-18T00:14:33.911Z,19.70
2022-08-18T00:17:01.281Z,19.70
2022-08-18T00:19:45.962Z,19.70
2022-08-18T00:22:19.011Z,19.50
2022-08-18T00:24:49.992Z,19.50
2022-08-18T00:27:21.821Z,19.50
2022-08-18T00:29:50.242Z,19.40
2022-08-18T00:32:20.917Z,19.40
2022-08-18T00:34:48.251Z,19.40
2022-08-18T00:37:15.301Z,19.30
2022-08-18T00:39:46.596Z,19.20
2022-08-18T00:42:27.664Z,19.20
2022-08-18T00:44:59.228Z,19.30
2022-08-18T00:47:42.583Z,19.30
2022-08-18T00:50:37.048Z,19.20
2022-08-18T00:53:14.730Z,19.20
2022-08-18T00:55:53.650Z,19.20
2022-08-18T00:58:47.314Z,19.30
2022-08-18T01:01:15.991Z,19.30
2022-08-18T01:03:44.277Z,19.20
2022-08-18T01:06:32.403Z,19.30
2022-08-18T01:08:59.875Z,19.20
2022-08-18T01:11:26.885Z,19.20
2022-08-18T01:13:54.062Z,19.10
2022-08-18T01:16:40.368Z,19.00
2022-08-18T01:19:44.045Z,18.90
2022-08-18T01:22:29.250Z,18.90
2022-08-18T01:25:17.287Z,18.90
2022-08-18T01:27:44.400Z,18.80
2022-08-18T01:30:15.052Z,18.80
2022-08-18T01:32:45.893Z,18.60
2022-08-18T01:35:15.915Z,18.60
2022-08-18T01:37:43.174Z,18.60
2022-08-18T01:41:25.813Z,18.70
2022-08-18T01:43:03.697Z,18.70
2022-08-18T01:45:33.449Z,18.80
2022-08-18T01:48:00.974Z,18.70
2022-08-18T01:50:30.331Z,18.70
2022-08-18T01:52:57.378Z,18.70
2022-08-18T01:55:28.473Z,18.60
2022-08-18T01:57:56.198Z,18.60
2022-08-18T02:00:25.003Z,18.60
2022-08-18T02:02:57.218Z,18.60
2022-08-18T02:05:43.599Z,18.60
2022-08-18T02:08:12.653Z,18.50
2022-08-18T02:10:40.422Z,18.50
2022-08-18T02:13:07.924Z,18.50
2022-08-18T02:15:35.174Z,18.40
2022-08-18T02:18:02.289Z,18.30
2022-08-18T02:20:29.382Z,18.30
2022-08-18T02:22:58.615Z,18.30
2022-08-18T02:25:25.828Z,18.30
2022-08-18T02:27:53.334Z,18.30
2022-08-18T02:30:20.908Z,18.20
2022-08-18T02:32:48.354Z,18.20
2022-08-18T02:35:15.706Z,18.20
2022-08-18T02:37:47.906Z,18.10
2022-08-18T02:40:17.014Z,18.10
2022-08-18T02:42:45.780Z,18.10
2022-08-18T02:45:13.352Z,18.10
2022-08-18T02:47:43.024Z,18.10
2022-08-18T02:50:13.490Z,18.10
2022-08-18T02:52:41.445Z,18.10
2022-08-18T02:55:09.757Z,18.10
2022-08-18T02:57:36.737Z,18.10
2022-08-18T03:00:04.606Z,18.10
2022-08-18T03:02:32.311Z,18.10
2022-08-18T03:04:59.286Z,18.10
2022-08-18T03:07:26.202Z,18.10
2022-08-18T03:09:53.314Z,18.10
2022-08-18T03:12:20.338Z,18.00
2022-08-18T03:14:47.262Z,18.00
2022-08-18T03:17:15.052Z,17.90
2022-08-18T03:19:47.141Z,18.00
2022-08-18T03:22:28.249Z,18.00
2022-08-18T03:24:56.958Z,18.00
2022-08-18T03:27:24.495Z,17.90
2022-08-18T03:29:51.545Z,17.90
2022-08-18T03:32:18.868Z,17.90
2022-08-18T03:34:46.130Z,17.80
2022-08-18T03:37:15.921Z,17.90
2022-08-18T03:39:43.012Z,17.90
2022-08-18T03:42:10.230Z,17.90
2022-08-18T03:44:37.438Z,17.80
2022-08-18T03:47:08.583Z,17.90
2022-08-18T03:49:35.805Z,17.80
2022-08-18T03:52:03.538Z,17.80
2022-08-18T03:54:32.319Z,17.90
2022-08-18T03:57:00.476Z,18.10
2022-08-18T03:59:30.696Z,18.20
2022-08-18T04:01:57.862Z,18.20
2022-08-18T04:04:27.680Z,18.20
2022-08-18T04:07:04.449Z,18.20
2022-08-18T04:09:33.979Z,18.20
2022-08-18T04:12:16.712Z,18.20
2022-08-18T04:14:48.453Z,18.20
2022-08-18T04:17:24.453Z,18.20
2022-08-18T04:19:53.245Z,18.30
2022-08-18T04:22:20.457Z,18.40
2022-08-18T04:24:49.701Z,18.40
2022-08-18T04:27:17.808Z,18.50
2022-08-18T04:29:44.740Z,18.60
2022-08-18T04:32:11.916Z,18.70
2022-08-18T04:34:39.132Z,18.80
2022-08-18T04:37:08.888Z,18.90
2022-08-18T04:39:35.848Z,19.00
2022-08-18T04:42:04.628Z,19.00
2022-08-18T04:44:31.893Z,19.10
2022-08-18T04:47:01.257Z,19.20
2022-08-18T04:49:28.487Z,19.30
2022-08-18T04:52:36.138Z,19.40
2022-08-18T04:55:02.303Z,19.50
2022-08-18T04:57:33.633Z,19.60
2022-08-18T05:00:03.048Z,19.80
2022-08-18T05:02:31.544Z,19.90
2022-08-18T05:04:58.558Z,20.00
2022-08-18T05:07:25.668Z,20.30
2022-08-18T05:09:55.637Z,20.40
2022-08-18T05:12:26.172Z,20.60
2022-08-18T05:14:54.466Z,20.80
2022-08-18T05:17:21.887Z,20.90
2022-08-18T05:19:51.724Z,21.10
2022-08-18T05:22:27.890Z,21.30
2022-08-18T05:24:56.022Z,21.50
2022-08-18T05:27:22.918Z,21.70
2022-08-18T05:29:51.665Z,21.80
2022-08-18T05:32:30.270Z,21.90
2022-08-18T05:34:59.744Z,22.00
2022-08-18T05:37:38.837Z,22.10
2022-08-18T05:40:11.291Z,22.20
2022-08-18T05:42:40.601Z,22.20
2022-08-18T05:45:15.572Z,22.40
2022-08-18T05:47:42.819Z,22.50
2022-08-18T05:50:13.489Z,22.70
2022-08-18T05:52:49.287Z,22.80
2022-08-18T05:55:47.742Z,23.00
2022-08-18T05:58:23.753Z,23.20
2022-08-18T06:01:05.082Z,23.30
2022-08-18T06:03:45.075Z,23.50
2022-08-18T06:06:19.503Z,23.60
2022-08-18T06:09:05.788Z,23.80
2022-08-18T06:11:33.141Z,23.80
2022-08-18T06:14:01.415Z,24.20
2022-08-18T06:16:37.376Z,24.40
2022-08-18T06:19:21.034Z,25.00
2022-08-18T06:21:56.197Z,25.40
2022-08-18T06:24:31.428Z,25.80
2022-08-18T06:27:03.637Z,26.40
2022-08-18T06:30:04.451Z,26.60
2022-08-18T06:33:09.327Z,26.80
2022-08-18T06:35:46.366Z,27.00
2022-08-18T06:38:36.874Z,26.90
2022-08-18T06:41:42.354Z,26.90
2022-08-18T06:44:32.455Z,27.00
2022-08-18T06:47:15.515Z,27.40
2022-08-18T06:49:42.727Z,28.00
2022-08-18T06:52:20.510Z,28.40
2022-08-18T06:54:51.298Z,28.70
2022-08-18T06:57:31.973Z,29.30
2022-08-18T07:00:03.936Z,29.90
2022-08-18T07:02:42.757Z,30.30
2022-08-18T07:05:19.685Z,30.30
2022-08-18T07:08:06.784Z,30.50
2022-08-18T07:10:50.125Z,30.60
2022-08-18T07:13:20.026Z,30.70
2022-08-18T07:15:48.552Z,31.20
2022-08-18T07:18:28.780Z,31.50
2022-08-18T07:21:00.803Z,32.00
2022-08-18T07:23:31.403Z,32.60
2022-08-18T07:26:05.349Z,32.70
2022-08-18T07:28:45.077Z,32.50
2022-08-18T07:31:24.944Z,32.70
2022-08-18T07:34:08.620Z,33.10
2022-08-18T07:36:47.653Z,33.20
2022-08-18T07:39:20.340Z,33.10
2022-08-18T07:42:06.421Z,33.20
2022-08-18T07:44:52.704Z,33.30
2022-08-18T07:47:41.268Z,33.40
2022-08-18T07:50:31.361Z,33.10
2022-08-18T07:53:34.918Z,33.00
2022-08-18T07:56:27.367Z,32.90
2022-08-18T07:59:20.343Z,33.20
2022-08-18T08:02:06.723Z,33.50
2022-08-18T08:04:41.139Z,33.60
2022-08-18T08:07:25.222Z,33.10
2022-08-18T08:10:03.443Z,33.10
2022-08-18T08:27:00.347Z,33.50
2022-08-18T08:29:51.412Z,32.90
2022-08-18T08:32:35.889Z,32.50
2022-08-18T08:35:50.514Z,32.40
2022-08-18T08:38:39.975Z,33.10
2022-08-18T08:41:21.402Z,34.10
2022-08-18T08:43:57.429Z,35.00
2022-08-18T08:46:32.038Z,36.10
2022-08-18T08:49:19.822Z,37.40
2022-08-18T08:51:56.863Z,37.80
2022-08-18T08:54:31.304Z,38.50
2022-08-18T08:57:01.304Z,39.30
2022-08-18T08:59:28.553Z,39.50
2022-08-18T09:02:47.211Z,39.30
2022-08-18T09:05:23.923Z,39.80
2022-08-18T09:08:19.757Z,39.70
2022-08-18T09:11:06.547Z,39.70
2022-08-18T09:13:36.412Z,40.30
2022-08-18T09:16:14.150Z,40.50
2022-08-18T09:19:19.147Z,39.90
2022-08-18T09:22:09.123Z,40.40
2022-08-18T09:24:47.665Z,41.30
2022-08-18T09:28:09.903Z,41.40
2022-08-18T09:30:42.132Z,42.10
2022-08-18T09:33:41.987Z,43.10
2022-08-18T09:36:30.687Z,43.40
2022-08-18T09:39:53.191Z,41.60
2022-08-18T09:42:49.680Z,40.20
2022-08-18T09:45:33.853Z,37.70
2022-08-18T09:48:25.346Z,38.10
2022-08-18T09:51:20.878Z,39.50
2022-08-18T09:53:52.307Z,40.80
2022-08-18T09:59:37.269Z,38.60
2022-08-18T10:05:19.092Z,41.00
2022-08-18T10:08:01.581Z,40.70
2022-08-18T10:17:13.341Z,35.40
2022-08-18T10:19:52.774Z,34.00
2022-08-18T10:22:46.365Z,33.10
2022-08-18T10:25:29.879Z,32.40
2022-08-18T10:27:57.194Z,31.90
2022-08-18T10:30:34.451Z,31.50
2022-08-18T10:33:17.214Z,31.30
2022-08-18T10:35:59.898Z,31.00
2022-08-18T10:38:45.909Z,30.60
2022-08-18T10:41:31.534Z,30.50
2022-08-18T10:44:01.348Z,30.60
2022-08-18T10:46:42.723Z,30.50
2022-08-18T10:49:13.931Z,30.30
2022-08-18T10:52:07.969Z,30.20
2022-08-18T10:54:54.894Z,30.30
2022-08-18T10:57:29.134Z,30.50
2022-08-18T11:00:08.410Z,30.70
2022-08-18T11:02:45.576Z,30.70
2022-08-18T11:05:21.192Z,30.60
2022-08-18T11:07:52.211Z,30.60
2022-08-18T11:10:57.762Z,30.60
2022-08-18T11:13:49.889Z,30.50
2022-08-18T11:16:17.153Z,30.70
2022-08-18T11:18:57.142Z,30.80
2022-08-18T11:21:41.976Z,30.70
2022-08-18T11:24:25.119Z,30.50
2022-08-18T11:26:53.374Z,30.30
2022-08-18T11:29:32.358Z,30.30
2022-08-18T11:32:36.875Z,30.10
2022-08-18T11:35:29.509Z,29.90
2022-08-18T11:38:03.337Z,30.20
2022-08-18T11:46:38.971Z,30.90
2022-08-18T11:49:58.299Z,30.80
2022-08-18T11:52:29.502Z,30.70
2022-08-18T11:55:16.713Z,30.60
2022-08-18T11:57:58.850Z,30.50
2022-08-18T12:00:53.573Z,30.40
2022-08-18T12:03:28.908Z,30.40
2022-08-18T12:06:19.195Z,30.50
2022-08-18T12:08:59.910Z,30.60
2022-08-18T12:11:33.997Z,30.40
2022-08-18T12:14:31.703Z,30.30
2022-08-18T12:16:57.783Z,30.30
2022-08-18T12:19:34.672Z,30.40
2022-08-18T12:22:13.443Z,30.30
2022-08-18T12:24:41.436Z,30.10
2022-08-18T12:27:20.402Z,30.00
2022-08-18T12:29:50.508Z,29.80
2022-08-18T12:32:46.531Z,29.60
2022-08-18T12:35:09.107Z,29.50
2022-08-18T12:38:00.396Z,29.50
2022-08-18T12:40:38.327Z,29.50
2022-08-18T12:43:06.522Z,29.50
2022-08-18T12:45:34.529Z,29.60
2022-08-18T12:48:04.840Z,29.60
2022-08-18T12:50:50.214Z,29.50
2022-08-18T12:53:29.093Z,29.40
2022-08-18T12:55:58.156Z,29.40
2022-08-18T12:58:25.175Z,29.50
2022-08-18T13:00:52.161Z,29.40
2022-08-18T13:03:20.106Z,29.40
2022-08-18T13:05:47.844Z,29.50
2022-08-18T13:08:30.367Z,29.50
2022-08-18T13:11:21.415Z,29.50
2022-08-18T13:13:52.730Z,29.50
2022-08-18T13:16:30.592Z,29.50
2022-08-18T13:19:06.196Z,29.40
2022-08-18T13:21:38.934Z,29.50
2022-08-18T13:24:09.404Z,29.50
2022-08-18T13:26:41.938Z,29.50
2022-08-18T13:29:10.156Z,29.40
2022-08-18T13:31:38.859Z,29.40
2022-08-18T13:34:11.880Z,29.40
2022-08-18T13:36:46.243Z,29.40
2022-08-18T13:39:20.956Z,29.40
2022-08-18T13:41:53.119Z,29.40
2022-08-18T13:44:22.542Z,29.50
2022-08-18T13:46:55.535Z,29.50
2022-08-18T13:49:30.300Z,29.50
2022-08-18T13:52:00.883Z,29.60
2022-08-18T13:54:34.069Z,29.50
2022-08-18T13:57:04.269Z,29.30
2022-08-18T13:59:32.919Z,29.20
2022-08-18T14:02:02.366Z,29.20
2022-08-18T14:04:29.538Z,29.30
2022-08-18T14:06:59.040Z,29.40
2022-08-18T14:09:37.212Z,29.60
2022-08-18T14:12:21.491Z,29.70
2022-08-18T14:14:54.252Z,29.70
2022-08-18T14:17:24.463Z,29.70
2022-08-18T14:20:21.160Z,29.60
2022-08-18T14:23:13.001Z,29.60
2022-08-18T14:25:59.706Z,30.10
2022-08-18T14:28:28.340Z,30.90
2022-08-18T14:30:57.045Z,31.20
2022-08-18T14:33:49.555Z,30.70
2022-08-18T14:36:14.226Z,30.90
2022-08-18T14:38:41.596Z,32.20
2022-08-18T14:41:11.680Z,32.30
2022-08-18T14:44:12.525Z,32.10
2022-08-18T14:46:30.129Z,32.10
2022-08-18T14:48:57.816Z,32.50
2022-08-18T14:51:27.087Z,33.00
2022-08-18T14:53:55.270Z,33.70
2022-08-18T14:56:24.417Z,34.10
2022-08-18T14:58:55.849Z,34.30
2022-08-18T15:01:24.622Z,34.60
2022-08-18T15:03:54.486Z,34.20
2022-08-18T15:06:27.065Z,33.80
2022-08-18T15:08:57.114Z,33.50
2022-08-18T15:11:25.282Z,33.00
2022-08-18T15:13:55.112Z,32.20
2022-08-18T15:16:31.576Z,31.60
2022-08-18T15:19:00.364Z,31.20
2022-08-18T15:21:47.818Z,30.70
2022-08-18T15:24:39.643Z,30.20
2022-08-18T15:27:10.220Z,29.80
2022-08-18T15:29:41.612Z,29.40
2022-08-18T15:32:17.562Z,29.10
2022-08-18T15:34:46.909Z,28.90
2022-08-18T15:37:20.369Z,28.70
2022-08-18T15:40:21.562Z,28.60
2022-08-18T15:43:01.444Z,28.50
2022-08-18T15:45:37.793Z,28.40
2022-08-18T15:48:12.614Z,28.30
2022-08-18T15:50:40.405Z,28.30
2022-08-18T15:53:11.981Z,28.20
2022-08-18T15:55:40.475Z,28.20
2022-08-18T15:58:11.071Z,28.20
2022-08-18T16:00:48.031Z,28.20
2022-08-18T16:03:16.671Z,28.10
2022-08-18T16:05:52.626Z,28.10
2022-08-18T16:08:25.424Z,28.10
2022-08-18T16:10:53.949Z,28.00
2022-08-18T16:13:21.829Z,28.00
2022-08-18T16:15:50.015Z,28.00
2022-08-18T16:18:20.890Z,27.90
2022-08-18T16:20:48.570Z,27.90
2022-08-18T16:23:19.849Z,27.90
2022-08-18T16:25:46.795Z,27.90
2022-08-18T16:28:13.935Z,27.80
2022-08-18T16:30:41.376Z,27.80
2022-08-18T16:33:08.576Z,27.70
2022-08-18T16:35:37.434Z,27.60
2022-08-18T16:38:09.175Z,27.70
2022-08-18T16:40:37.546Z,27.60
2022-08-18T16:43:05.965Z,27.60
2022-08-18T16:45:36.140Z,27.50
2022-08-18T16:48:03.709Z,27.40
2022-08-18T16:50:30.694Z,27.40
2022-08-18T16:52:57.917Z,27.30
2022-08-18T16:55:25.255Z,27.10
2022-08-18T16:58:15.288Z,27.10
2022-08-18T17:01:02.342Z,27.00
2022-08-18T17:03:47.976Z,26.90
2022-08-18T17:06:18.250Z,26.80
2022-08-18T17:08:46.258Z,26.70
2022-08-18T17:11:17.550Z,26.60
2022-08-18T17:13:46.640Z,26.50
2022-08-18T17:16:14.336Z,26.50
2022-08-18T17:18:42.036Z,26.40
2022-08-18T17:21:12.494Z,26.30
2022-08-18T17:23:40.901Z,26.20
2022-08-18T17:26:17.607Z,26.10
2022-08-18T17:28:52.620Z,26.00
2022-08-18T17:31:21.059Z,25.90
2022-08-18T17:33:49.017Z,25.70
2022-08-18T17:36:28.235Z,25.70
2022-08-18T17:39:00.097Z,25.60
2022-08-18T17:41:27.925Z,25.50
2022-08-18T17:44:00.836Z,25.30
2022-08-18T17:46:37.083Z,25.20
2022-08-18T17:49:14.490Z,25.20
2022-08-18T17:51:55.331Z,25.00
2022-08-18T17:54:43.542Z,24.90
2022-08-18T17:57:35.937Z,24.80
2022-08-18T18:00:12.753Z,24.70
2022-08-18T18:02:47.916Z,24.60
2022-08-18T18:05:19.653Z,24.50
2022-08-18T18:07:52.904Z,24.50
2022-08-18T18:10:25.760Z,24.40
2022-08-18T18:13:10.189Z,24.30
2022-08-18T18:15:40.877Z,24.10
2022-08-18T18:18:21.855Z,24.10
2022-08-18T18:21:05.723Z,24.00
2022-08-18T18:23:41.346Z,23.90
2022-08-18T18:26:33.692Z,23.80
2022-08-18T18:29:19.475Z,23.70
2022-08-18T18:32:24.219Z,23.60
2022-08-18T18:35:15.666Z,23.50
2022-08-18T18:37:52.587Z,23.40
2022-08-18T18:40:35.815Z,23.40
2022-08-18T18:43:33.274Z,23.30
2022-08-18T18:46:18.944Z,23.20
2022-08-18T18:48:52.219Z,23.10
2022-08-18T18:51:47.047Z,23.00
2022-08-18T18:54:19.688Z,23.00
2022-08-18T18:56:54.097Z,22.90
2022-08-18T19:00:03.017Z,22.80
2022-08-18T19:02:49.129Z,22.80
2022-08-18T19:05:52.252Z,22.80
2022-08-18T19:08:22.100Z,22.80
2022-08-18T19:11:14.392Z,22.80
2022-08-18T19:13:49.493Z,22.80
2022-08-18T19:16:28.413Z,22.80
2022-08-18T19:19:38.307Z,22.90
2022-08-18T19:22:23.091Z,22.90
2022-08-18T19:25:14.199Z,22.90
2022-08-18T19:27:56.931Z,22.80
2022-08-18T19:30:24.212Z,22.80
2022-08-18T19:33:00.707Z,22.80
2022-08-18T19:35:39.661Z,22.90
2022-08-18T19:38:19.190Z,22.90
2022-08-18T19:40:54.829Z,22.90
2022-08-18T19:43:38.985Z,22.90
2022-08-18T19:46:38.122Z,22.90
2022-08-18T19:49:12.134Z,22.80
2022-08-18T19:51:41.821Z,22.80
2022-08-18T19:54:36.697Z,22.90
2022-08-18T19:57:27.566Z,22.90
2022-08-18T20:00:13.007Z,22.90
2022-08-18T20:03:04.891Z,22.90
2022-08-18T20:05:41.608Z,22.90
2022-08-18T20:08:15.079Z,23.00
2022-08-18T20:10:57.926Z,22.90
2022-08-18T20:13:41.301Z,22.90
2022-08-18T20:16:45.207Z,22.90
2022-08-18T20:19:31.227Z,22.90
2022-08-18T20:22:03.714Z,22.90
2022-08-18T20:24:30.738Z,22.90
2022-08-18T20:27:21.750Z,22.90
2022-08-18T20:30:00.105Z,22.80
2022-08-18T20:32:34.430Z,22.80
2022-08-18T20:35:21.389Z,22.70
2022-08-18T20:37:48.375Z,22.60
2022-08-18T20:40:41.062Z,22.60
2022-08-18T20:43:24.121Z,22.50
2022-08-18T20:45:58.816Z,22.50
2022-08-18T20:48:35.895Z,22.50
2022-08-18T20:51:13.592Z,22.50
2022-08-18T20:54:03.975Z,22.40
2022-08-18T20:56:55.483Z,22.40
2022-08-18T20:59:39.042Z,22.30
2022-08-18T21:02:31.821Z,22.20
2022-08-18T21:05:00.727Z,22.20
2022-08-18T21:07:37.767Z,22.10
2022-08-18T21:10:12.131Z,22.00
2022-08-18T21:12:52.437Z,21.90
2022-08-18T21:15:26.863Z,21.70
2022-08-18T21:18:20.938Z,21.60
2022-08-18T21:20:50.151Z,21.50
2022-08-18T21:23:24.845Z,21.40
2022-08-18T21:25:55.545Z,21.40
2022-08-18T21:28:25.452Z,21.40
2022-08-18T21:31:29.089Z,21.40
2022-08-18T21:34:01.083Z,21.40
2022-08-18T21:36:32.515Z,21.40
2022-08-18T21:39:07.672Z,21.40
2022-08-18T21:41:42.546Z,21.40
2022-08-18T21:44:21.605Z,21.50
2022-08-18T21:46:49.213Z,21.50
2022-08-18T21:49:27.249Z,21.60
2022-08-18T21:51:54.627Z,21.70
2022-08-18T21:54:25.215Z,21.70
2022-08-18T21:57:26.736Z,21.80
2022-08-18T22:00:23.815Z,21.80
2022-08-18T22:03:07.864Z,21.80
2022-08-18T22:05:58.218Z,21.80
2022-08-18T22:08:28.673Z,21.80
2022-08-18T22:11:59.856Z,21.80
2022-08-18T22:14:53.913Z,21.70
2022-08-18T22:17:31.572Z,21.70
2022-08-18T22:20:36.872Z,21.70
2022-08-18T22:23:31.506Z,21.70
2022-08-18T22:26:16.502Z,21.70
2022-08-18T22:29:01.295Z,21.70
2022-08-18T22:31:37.574Z,21.80
2022-08-18T22:34:14.397Z,21.80
2022-08-18T22:36:54.080Z,21.90
2022-08-18T22:39:28.569Z,21.90
2022-08-18T22:41:56.098Z,21.80
2022-08-18T22:44:23.435Z,21.90
2022-08-18T22:46:50.903Z,22.00
2022-08-18T22:49:18.699Z,22.00
2022-08-18T22:51:48.387Z,22.00
2022-08-18T22:54:17.064Z,22.00
2022-08-18T22:56:55.177Z,22.00
2022-08-18T22:59:26.775Z,22.00
2022-08-18T23:01:54.568Z,22.00
2022-08-18T23:04:23.130Z,22.00
2022-08-18T23:06:53.811Z,22.00
2022-08-18T23:09:26.987Z,22.00
2022-08-18T23:11:59.871Z,22.00
2022-08-18T23:14:28.274Z,22.00
2022-08-18T23:16:55.405Z,21.90
2022-08-18T23:19:22.903Z,22.00
2022-08-18T23:21:51.715Z,21.90
2022-08-18T23:24:20.240Z,21.90
2022-08-18T23:26:47.559Z,21.90
2022-08-18T23:29:14.856Z,21.80
2022-08-18T23:31:44.926Z,21.80
2022-08-18T23:34:14.762Z,21.80
2022-08-18T23:36:45.577Z,21.70
2022-08-18T23:39:14.582Z,21.70
2022-08-18T23:41:41.604Z,21.70
2022-08-18T23:44:08.870Z,21.60
2022-08-18T23:46:36.283Z,21.60
2022-08-18T23:49:07.640Z,21.40
2022-08-18T23:51:43.931Z,21.40
2022-08-18T23:54:17.727Z,21.40
2022-08-18T23:56:45.585Z,21.40
2022-08-18T23:59:13.610Z,21.40
